createdAt,value
2019-06-20T00:00:45.323Z,19.20
2019-06-20T00:01:49.299Z,19.30
2019-06-20T00:02:53.060Z,19.30
2019-06-20T00:03:57.076Z,19.30
2019-06-20T00:05:00.845Z,19.30
2019-06-20T00:06:04.883Z,19.30
2019-06-20T00:07:08.675Z,19.20
2019-06-20T00:08:13.022Z,19.30
2019-06-20T00:09:16.779Z,19.20
2019-06-20T00:10:20.824Z,19.30
2019-06-20T00:11:24.625Z,19.30
2019-06-20T00:12:28.586Z,19.30
2019-06-20T00:13:32.396Z,19.20
2019-06-20T00:14:36.400Z,19.30
2019-06-20T00:15:40.773Z,19.20
2019-06-20T00:16:44.821Z,19.10
2019-06-20T00:17:48.583Z,19.10
2019-06-20T00:18:52.552Z,19.00
2019-06-20T00:19:56.321Z,18.90
2019-06-20T00:21:00.327Z,18.90
2019-06-20T00:22:04.127Z,18.90
2019-06-20T00:23:08.104Z,19.00
2019-06-20T00:24:11.867Z,19.00
2019-06-20T00:25:15.926Z,19.00
2019-06-20T00:26:19.719Z,19.00
2019-06-20T00:27:23.689Z,18.90
2019-06-20T00:28:27.496Z,18.90
2019-06-20T00:29:31.520Z,18.90
2019-06-20T00:30:35.387Z,19.00
2019-06-20T00:31:39.358Z,19.00
2019-06-20T00:32:43.155Z,19.10
2019-06-20T00:33:47.155Z,19.10
2019-06-20T00:34:50.936Z,19.20
2019-06-20T00:35:54.935Z,19.20
2019-06-20T00:36:58.696Z,19.20
2019-06-20T00:38:02.669Z,19.20
2019-06-20T00:39:08.287Z,19.20
2019-06-20T00:40:12.599Z,19.20
2019-06-20T00:41:16.535Z,19.20
2019-06-20T00:42:20.502Z,19.20
2019-06-20T00:43:24.258Z,19.20
2019-06-20T00:44:28.259Z,19.20
2019-06-20T00:45:32.018Z,19.20
2019-06-20T00:46:35.996Z,19.20
2019-06-20T00:47:39.756Z,19.20
2019-06-20T00:48:43.756Z,19.10
2019-06-20T00:49:47.524Z,19.10
2019-06-20T00:50:51.497Z,19.00
2019-06-20T00:51:55.265Z,19.00
2019-06-20T00:52:59.240Z,18.90
2019-06-20T00:54:03.103Z,18.90
2019-06-20T00:55:08.115Z,18.80
2019-06-20T00:56:11.880Z,18.70
2019-06-20T00:57:15.860Z,18.80
2019-06-20T00:58:19.638Z,18.80
2019-06-20T00:59:23.606Z,18.80
2019-06-20T01:00:27.510Z,18.80
2019-06-20T01:01:31.491Z,18.80
2019-06-20T01:02:35.309Z,18.80
2019-06-20T01:03:39.348Z,18.90
2019-06-20T01:04:43.104Z,18.90
2019-06-20T01:05:47.097Z,18.90
2019-06-20T01:06:50.891Z,18.90
2019-06-20T01:07:54.865Z,18.90
2019-06-20T01:08:58.619Z,18.90
2019-06-20T01:10:02.598Z,18.90
2019-06-20T01:11:06.435Z,18.90
2019-06-20T01:12:10.448Z,18.90
2019-06-20T01:13:14.209Z,18.90
2019-06-20T01:14:18.172Z,18.90
2019-06-20T01:15:22.372Z,18.90
2019-06-20T01:16:26.356Z,18.90
2019-06-20T01:17:30.147Z,18.90
2019-06-20T01:18:34.158Z,18.90
2019-06-20T01:19:37.919Z,18.90
2019-06-20T01:20:41.930Z,18.80
2019-06-20T01:21:45.690Z,18.90
2019-06-20T01:22:49.655Z,18.90
2019-06-20T01:23:53.444Z,18.90
2019-06-20T01:24:57.416Z,18.90
2019-06-20T01:26:01.174Z,18.80
2019-06-20T01:27:05.175Z,18.80
2019-06-20T01:28:09.110Z,18.70
2019-06-20T01:29:13.083Z,18.70
2019-06-20T01:30:17.176Z,18.70
2019-06-20T01:31:21.143Z,18.70
2019-06-20T01:32:24.907Z,18.60
2019-06-20T01:33:28.909Z,18.50
2019-06-20T01:34:32.666Z,18.50
2019-06-20T01:35:36.714Z,18.50
2019-06-20T01:36:40.535Z,18.50
2019-06-20T01:37:44.543Z,18.50
2019-06-20T01:38:48.310Z,18.50
2019-06-20T01:39:52.307Z,18.50
2019-06-20T01:40:56.061Z,18.50
2019-06-20T01:42:00.032Z,18.50
2019-06-20T01:43:03.837Z,18.60
2019-06-20T01:44:07.939Z,18.50
2019-06-20T01:45:11.875Z,18.40
2019-06-20T01:46:15.911Z,18.50
2019-06-20T01:47:19.669Z,18.50
2019-06-20T01:48:23.683Z,18.50
2019-06-20T01:49:27.471Z,18.60
2019-06-20T01:50:31.439Z,18.60
2019-06-20T01:51:35.199Z,18.60
2019-06-20T01:52:39.182Z,18.60
2019-06-20T01:53:42.944Z,18.60
2019-06-20T01:54:47.095Z,18.60
2019-06-20T01:55:50.859Z,18.70
2019-06-20T01:56:54.836Z,18.70
2019-06-20T01:57:58.655Z,18.70
2019-06-20T01:59:02.623Z,18.70
2019-06-20T02:00:10.182Z,18.70
2019-06-20T02:01:14.219Z,18.70
2019-06-20T02:02:17.982Z,18.70
2019-06-20T02:03:22.123Z,18.80
2019-06-20T02:04:25.888Z,18.80
2019-06-20T02:05:29.863Z,18.80
2019-06-20T02:06:34.827Z,18.70
2019-06-20T02:07:38.766Z,18.70
2019-06-20T02:08:42.569Z,18.70
2019-06-20T02:09:46.494Z,18.80
2019-06-20T02:10:50.273Z,18.80
2019-06-20T02:11:54.248Z,18.80
2019-06-20T02:12:58.038Z,18.80
2019-06-20T02:14:07.404Z,18.80
2019-06-20T02:15:07.665Z,18.80
2019-06-20T02:16:11.832Z,18.70
2019-06-20T02:17:15.628Z,18.70
2019-06-20T02:18:19.684Z,18.70
2019-06-20T02:19:23.508Z,18.70
2019-06-20T02:20:36.391Z,18.70
2019-06-20T02:21:40.182Z,18.70
2019-06-20T02:22:44.180Z,18.70
2019-06-20T02:23:47.936Z,18.70
2019-06-20T02:24:51.907Z,18.70
2019-06-20T02:25:55.734Z,18.70
2019-06-20T02:26:59.738Z,18.70
2019-06-20T02:28:03.670Z,18.60
2019-06-20T02:29:07.603Z,18.60
2019-06-20T02:30:11.610Z,18.50
2019-06-20T02:31:15.579Z,18.50
2019-06-20T02:32:19.366Z,18.50
2019-06-20T02:33:23.416Z,18.50
2019-06-20T02:34:27.252Z,18.50
2019-06-20T02:35:31.232Z,18.50
2019-06-20T02:36:34.986Z,18.40
2019-06-20T02:37:39.005Z,18.40
2019-06-20T02:38:42.763Z,18.40
2019-06-20T02:39:46.730Z,18.40
2019-06-20T02:40:50.629Z,18.40
2019-06-20T02:41:54.600Z,18.30
2019-06-20T02:42:58.392Z,18.40
2019-06-20T02:44:02.647Z,18.40
2019-06-20T02:45:09.184Z,18.40
2019-06-20T02:46:13.210Z,18.40
2019-06-20T02:47:16.992Z,18.40
2019-06-20T02:48:20.956Z,18.40
2019-06-20T02:49:24.725Z,18.40
2019-06-20T02:50:28.936Z,18.40
2019-06-20T02:51:32.787Z,18.40
2019-06-20T02:52:36.844Z,18.50
2019-06-20T02:53:40.616Z,18.50
2019-06-20T02:54:44.632Z,18.50
2019-06-20T02:55:48.391Z,18.50
2019-06-20T02:56:52.363Z,18.50
2019-06-20T02:57:56.205Z,18.50
2019-06-20T02:59:00.128Z,18.40
2019-06-20T03:00:07.758Z,18.40
2019-06-20T03:01:11.727Z,18.40
2019-06-20T03:02:15.514Z,18.40
2019-06-20T03:03:19.488Z,18.30
2019-06-20T03:04:23.248Z,18.40
2019-06-20T03:05:27.222Z,18.40
2019-06-20T03:06:31.024Z,18.40
2019-06-20T03:07:34.991Z,18.40
2019-06-20T03:08:38.795Z,18.50
2019-06-20T03:09:42.763Z,18.50
2019-06-20T03:10:46.596Z,18.50
2019-06-20T03:11:50.636Z,18.40
2019-06-20T03:12:54.440Z,18.50
2019-06-20T03:13:58.372Z,18.50
2019-06-20T03:15:02.160Z,18.50
2019-06-20T03:16:06.195Z,18.40
2019-06-20T03:17:09.986Z,18.30
2019-06-20T03:18:13.991Z,18.40
2019-06-20T03:19:17.780Z,18.40
2019-06-20T03:20:21.828Z,18.40
2019-06-20T03:21:25.648Z,18.30
2019-06-20T03:22:29.620Z,18.30
2019-06-20T03:23:33.374Z,18.30
2019-06-20T03:24:37.392Z,18.30
2019-06-20T03:25:41.272Z,18.30
2019-06-20T03:26:45.294Z,18.30
2019-06-20T03:27:49.035Z,18.30
2019-06-20T03:28:53.003Z,18.30
2019-06-20T03:29:56.779Z,18.40
2019-06-20T03:31:00.786Z,18.40
2019-06-20T03:32:04.609Z,18.40
2019-06-20T03:33:08.582Z,18.40
2019-06-20T03:34:12.360Z,18.40
2019-06-20T03:35:16.872Z,18.40
2019-06-20T03:36:20.682Z,18.40
2019-06-20T03:37:24.660Z,18.50
2019-06-20T03:38:28.456Z,18.50
2019-06-20T03:39:32.427Z,18.50
2019-06-20T03:40:36.183Z,18.50
2019-06-20T03:41:40.176Z,18.50
2019-06-20T03:42:43.951Z,18.50
2019-06-20T03:43:47.969Z,18.50
2019-06-20T03:45:01.625Z,18.50
2019-06-20T03:45:57.411Z,18.50
2019-06-20T03:47:01.173Z,18.50
2019-06-20T03:48:05.244Z,18.50
2019-06-20T03:49:09.040Z,18.60
2019-06-20T03:50:14.051Z,18.60
2019-06-20T03:51:17.814Z,18.50
2019-06-20T03:52:21.823Z,18.50
2019-06-20T03:53:25.542Z,18.60
2019-06-20T03:54:29.550Z,18.60
2019-06-20T03:55:33.952Z,18.60
2019-06-20T03:56:37.941Z,18.60
2019-06-20T03:57:41.866Z,18.60
2019-06-20T03:58:45.966Z,18.60
2019-06-20T03:59:49.708Z,18.50
2019-06-20T04:00:53.689Z,18.60
2019-06-20T04:01:57.536Z,18.60
2019-06-20T04:03:01.687Z,18.50
2019-06-20T04:04:05.594Z,18.50
2019-06-20T04:05:09.878Z,18.50
2019-06-20T04:06:13.641Z,18.50
2019-06-20T04:07:17.650Z,18.50
2019-06-20T04:08:21.403Z,18.50
2019-06-20T04:09:25.375Z,18.60
2019-06-20T04:10:29.209Z,18.60
2019-06-20T04:11:33.178Z,18.60
2019-06-20T04:12:36.980Z,18.60
2019-06-20T04:13:40.953Z,18.60
2019-06-20T04:14:44.780Z,18.60
2019-06-20T04:15:48.678Z,18.50
2019-06-20T04:16:52.475Z,18.50
2019-06-20T04:17:56.487Z,18.60
2019-06-20T04:19:00.252Z,18.60
2019-06-20T04:20:06.263Z,18.70
2019-06-20T04:21:10.015Z,18.70
2019-06-20T04:22:14.031Z,18.70
2019-06-20T04:23:17.792Z,18.80
2019-06-20T04:24:21.767Z,18.70
2019-06-20T04:25:25.522Z,18.70
2019-06-20T04:26:29.507Z,18.70
2019-06-20T04:27:33.583Z,18.60
2019-06-20T04:28:37.616Z,18.70
2019-06-20T04:29:41.467Z,18.70
2019-06-20T04:30:45.422Z,18.70
2019-06-20T04:31:49.180Z,18.70
2019-06-20T04:32:53.147Z,18.80
2019-06-20T04:33:56.936Z,18.80
2019-06-20T04:35:00.900Z,18.80
2019-06-20T04:36:04.796Z,18.80
2019-06-20T04:37:08.774Z,18.90
2019-06-20T04:38:12.571Z,18.80
2019-06-20T04:39:19.555Z,18.80
2019-06-20T04:40:23.492Z,18.80
2019-06-20T04:41:27.471Z,18.90
2019-06-20T04:42:31.249Z,18.90
2019-06-20T04:43:35.246Z,18.90
2019-06-20T04:44:39.031Z,18.90
2019-06-20T04:46:00.543Z,19.00
2019-06-20T04:47:13.815Z,19.00
2019-06-20T04:48:18.012Z,18.90
2019-06-20T04:49:21.580Z,18.90
2019-06-20T04:50:25.747Z,18.90
2019-06-20T04:51:29.319Z,19.00
2019-06-20T04:52:33.471Z,19.00
2019-06-20T04:53:37.082Z,19.00
2019-06-20T04:54:41.248Z,19.10
2019-06-20T04:55:44.830Z,19.10
2019-06-20T04:56:49.056Z,19.20
2019-06-20T04:57:52.636Z,19.20
2019-06-20T04:58:56.791Z,19.20
2019-06-20T05:00:03.329Z,19.30
2019-06-20T05:01:07.542Z,19.30
2019-06-20T05:02:14.743Z,19.30
2019-06-20T05:03:16.918Z,19.40
2019-06-20T05:04:20.487Z,19.50
2019-06-20T05:05:24.646Z,19.40
2019-06-20T05:06:28.220Z,19.50
2019-06-20T05:07:32.408Z,19.60
2019-06-20T05:08:35.991Z,19.60
2019-06-20T05:09:40.152Z,19.70
2019-06-20T05:10:43.890Z,19.70
2019-06-20T05:11:48.108Z,19.70
2019-06-20T05:12:51.716Z,19.80
2019-06-20T05:13:55.878Z,19.80
2019-06-20T05:14:59.448Z,19.90
2019-06-20T05:16:04.779Z,19.90
2019-06-20T05:17:08.350Z,19.90
2019-06-20T05:18:12.547Z,19.90
2019-06-20T05:19:16.143Z,19.90
2019-06-20T05:20:20.589Z,20.00
2019-06-20T05:21:24.198Z,20.00
2019-06-20T05:22:28.363Z,20.00
2019-06-20T05:23:31.951Z,20.00
2019-06-20T05:24:36.124Z,19.90
2019-06-20T05:25:39.730Z,19.90
2019-06-20T05:26:43.874Z,19.90
2019-06-20T05:27:47.474Z,19.90
2019-06-20T05:28:51.656Z,19.90
2019-06-20T05:29:55.261Z,19.90
2019-06-20T05:30:59.443Z,19.80
2019-06-20T05:32:03.061Z,19.80
2019-06-20T05:33:07.254Z,19.80
2019-06-20T05:34:10.828Z,19.70
2019-06-20T05:35:15.815Z,19.70
2019-06-20T05:36:19.429Z,19.80
2019-06-20T05:37:23.570Z,19.80
2019-06-20T05:38:27.265Z,19.80
2019-06-20T05:39:31.411Z,19.80
2019-06-20T05:40:37.253Z,19.90
2019-06-20T05:41:40.816Z,20.00
2019-06-20T05:42:44.389Z,20.00
2019-06-20T05:43:48.542Z,20.10
2019-06-20T05:44:52.146Z,20.10
2019-06-20T05:46:08.941Z,20.10
2019-06-20T05:47:11.957Z,20.10
2019-06-20T05:48:07.667Z,20.00
2019-06-20T05:49:11.339Z,20.10
2019-06-20T05:50:15.595Z,20.10
2019-06-20T05:51:19.167Z,20.10
2019-06-20T05:52:23.320Z,20.20
2019-06-20T05:53:26.938Z,20.20
2019-06-20T05:54:31.100Z,20.30
2019-06-20T05:55:35.039Z,20.40
2019-06-20T05:56:39.239Z,20.40
2019-06-20T05:57:42.795Z,20.40
2019-06-20T05:58:46.979Z,20.40
2019-06-20T05:59:50.560Z,20.40
2019-06-20T06:00:54.715Z,20.50
2019-06-20T06:01:58.356Z,20.50
2019-06-20T06:03:06.669Z,20.60
2019-06-20T06:04:07.795Z,20.70
2019-06-20T06:05:12.178Z,20.70
2019-06-20T06:06:15.793Z,20.70
2019-06-20T06:07:19.952Z,20.80
2019-06-20T06:08:23.531Z,20.80
2019-06-20T06:09:27.679Z,20.80
2019-06-20T06:10:31.250Z,20.70
2019-06-20T06:11:35.461Z,20.60
2019-06-20T06:12:39.024Z,20.60
2019-06-20T06:13:43.210Z,20.60
2019-06-20T06:14:46.783Z,20.60
2019-06-20T06:15:50.931Z,20.60
2019-06-20T06:16:54.508Z,20.60
2019-06-20T06:17:58.662Z,20.60
2019-06-20T06:19:02.273Z,20.60
2019-06-20T06:20:10.820Z,20.60
2019-06-20T06:21:14.420Z,20.50
2019-06-20T06:22:18.567Z,20.40
2019-06-20T06:23:22.140Z,20.30
2019-06-20T06:24:26.302Z,20.30
2019-06-20T06:25:29.878Z,20.30
2019-06-20T06:26:34.054Z,20.20
2019-06-20T06:27:37.700Z,20.10
2019-06-20T06:28:41.857Z,20.10
2019-06-20T06:29:45.426Z,20.10
2019-06-20T06:30:49.606Z,20.10
2019-06-20T06:31:53.179Z,20.20
2019-06-20T06:32:57.331Z,20.20
2019-06-20T06:34:00.939Z,20.20
2019-06-20T06:35:09.729Z,20.20
2019-06-20T06:36:13.292Z,20.20
2019-06-20T06:37:17.479Z,20.30
2019-06-20T06:38:22.490Z,20.30
2019-06-20T06:39:27.177Z,20.40
2019-06-20T06:40:30.814Z,20.40
2019-06-20T06:41:34.975Z,20.40
2019-06-20T06:42:38.648Z,20.40
2019-06-20T06:43:42.804Z,20.50
2019-06-20T06:44:46.403Z,20.50
2019-06-20T06:45:50.556Z,20.60
2019-06-20T06:46:59.265Z,20.60
2019-06-20T06:47:59.926Z,20.70
2019-06-20T06:49:03.510Z,20.70
2019-06-20T06:50:08.430Z,20.70
2019-06-20T06:51:11.998Z,20.70
2019-06-20T06:52:16.147Z,20.70
2019-06-20T06:53:19.752Z,20.70
2019-06-20T06:54:23.912Z,20.80
2019-06-20T06:55:27.913Z,20.80
2019-06-20T06:56:32.176Z,20.80
2019-06-20T06:57:35.813Z,20.80
2019-06-20T06:58:39.970Z,20.80
2019-06-20T06:59:43.595Z,20.80
2019-06-20T07:00:47.718Z,20.80
2019-06-20T07:01:51.301Z,20.80
2019-06-20T07:02:55.759Z,20.80
2019-06-20T07:03:59.443Z,20.80
2019-06-20T07:05:04.015Z,20.80
2019-06-20T07:06:07.648Z,20.80
2019-06-20T07:07:11.798Z,20.80
2019-06-20T07:08:15.387Z,20.80
2019-06-20T07:09:19.604Z,20.80
2019-06-20T07:10:23.303Z,20.80
2019-06-20T07:11:27.457Z,20.90
2019-06-20T07:12:31.136Z,20.90
2019-06-20T07:13:35.295Z,21.00
2019-06-20T07:14:42.421Z,21.00
2019-06-20T07:15:45.332Z,21.00
2019-06-20T07:16:59.793Z,21.00
2019-06-20T07:17:54.703Z,21.00
2019-06-20T07:18:58.271Z,20.90
2019-06-20T07:20:02.434Z,20.90
2019-06-20T07:21:06.026Z,20.90
2019-06-20T07:22:10.324Z,21.00
2019-06-20T07:23:13.935Z,21.00
2019-06-20T07:24:18.079Z,21.10
2019-06-20T07:25:21.736Z,21.10
2019-06-20T07:26:25.960Z,21.10
2019-06-20T07:27:29.555Z,21.10
2019-06-20T07:28:33.712Z,21.10
2019-06-20T07:29:37.314Z,21.20
2019-06-20T07:30:41.480Z,21.20
2019-06-20T07:31:45.075Z,21.30
2019-06-20T07:32:49.330Z,21.30
2019-06-20T07:33:52.947Z,21.20
2019-06-20T07:34:57.096Z,21.10
2019-06-20T07:36:00.711Z,21.10
2019-06-20T07:37:04.857Z,21.20
2019-06-20T07:38:08.432Z,21.30
2019-06-20T07:39:12.622Z,21.40
2019-06-20T07:40:18.110Z,21.40
2019-06-20T07:41:22.300Z,21.40
2019-06-20T07:42:25.870Z,21.40
2019-06-20T07:43:30.015Z,21.40
2019-06-20T07:44:33.621Z,21.40
2019-06-20T07:45:37.767Z,21.40
2019-06-20T07:46:41.336Z,21.30
2019-06-20T07:47:45.523Z,21.30
2019-06-20T07:48:49.092Z,21.30
2019-06-20T07:49:53.257Z,21.30
2019-06-20T07:50:56.816Z,21.20
2019-06-20T07:52:00.968Z,21.20
2019-06-20T07:53:04.568Z,21.20
2019-06-20T07:54:08.715Z,21.30
2019-06-20T07:55:12.359Z,21.40
2019-06-20T07:56:16.546Z,21.40
2019-06-20T07:57:20.114Z,21.50
2019-06-20T07:58:24.266Z,21.60
2019-06-20T07:59:27.849Z,21.80
2019-06-20T08:00:32.708Z,21.90
2019-06-20T08:01:36.307Z,21.90
2019-06-20T08:02:40.595Z,21.90
2019-06-20T08:03:45.252Z,22.00
2019-06-20T08:04:49.617Z,22.00
2019-06-20T08:05:53.227Z,22.10
2019-06-20T08:06:57.371Z,22.20
2019-06-20T08:08:01.032Z,22.30
2019-06-20T08:09:07.972Z,22.50
2019-06-20T08:10:13.643Z,22.60
2019-06-20T08:11:17.825Z,22.70
2019-06-20T08:12:21.412Z,22.70
2019-06-20T08:13:25.564Z,22.90
2019-06-20T08:14:29.227Z,22.90
2019-06-20T08:15:33.376Z,22.90
2019-06-20T08:16:37.009Z,22.80
2019-06-20T08:17:41.240Z,22.80
2019-06-20T08:18:44.877Z,22.70
2019-06-20T08:19:49.027Z,22.80
2019-06-20T08:20:52.595Z,22.70
2019-06-20T08:21:56.856Z,22.80
2019-06-20T08:23:00.440Z,22.80
2019-06-20T08:24:04.647Z,22.80
2019-06-20T08:25:09.057Z,22.80
2019-06-20T08:26:13.236Z,22.80
2019-06-20T08:27:18.520Z,22.80
2019-06-20T08:28:22.740Z,22.90
2019-06-20T08:29:26.322Z,22.90
2019-06-20T08:30:32.402Z,22.90
2019-06-20T08:31:36.883Z,23.00
2019-06-20T08:32:41.026Z,23.00
2019-06-20T08:33:44.613Z,23.10
2019-06-20T08:34:48.771Z,23.10
2019-06-20T08:35:52.336Z,23.20
2019-06-20T08:36:57.786Z,23.30
2019-06-20T08:38:03.714Z,23.20
2019-06-20T08:39:09.914Z,23.30
2019-06-20T08:40:13.557Z,23.50
2019-06-20T08:41:17.704Z,23.60
2019-06-20T08:42:21.309Z,23.60
2019-06-20T08:43:25.455Z,23.70
2019-06-20T08:44:29.024Z,23.80
2019-06-20T08:45:34.343Z,23.90
2019-06-20T08:46:37.923Z,23.90
2019-06-20T08:47:42.079Z,23.90
2019-06-20T08:48:45.641Z,23.90
2019-06-20T08:49:49.791Z,23.80
2019-06-20T08:50:53.388Z,23.80
2019-06-20T08:51:57.538Z,23.70
2019-06-20T08:53:01.636Z,23.60
2019-06-20T08:54:06.104Z,23.50
2019-06-20T08:55:09.806Z,23.40
2019-06-20T08:56:13.951Z,23.40
2019-06-20T08:57:17.535Z,23.20
2019-06-20T08:58:21.720Z,23.10
2019-06-20T08:59:25.287Z,23.00
2019-06-20T09:00:30.282Z,23.00
2019-06-20T09:01:33.853Z,22.90
2019-06-20T09:02:38.008Z,22.90
2019-06-20T09:03:41.646Z,23.00
2019-06-20T09:04:45.788Z,23.00
2019-06-20T09:05:49.359Z,23.00
2019-06-20T09:06:55.258Z,22.90
2019-06-20T09:09:06.452Z,23.00
2019-06-20T09:10:10.861Z,23.00
2019-06-20T09:11:15.188Z,22.90
2019-06-20T09:12:18.811Z,22.90
2019-06-20T09:13:22.945Z,22.80
2019-06-20T09:14:26.574Z,22.80
2019-06-20T09:15:30.696Z,22.90
2019-06-20T09:16:34.259Z,22.90
2019-06-20T09:17:38.637Z,23.00
2019-06-20T09:18:42.209Z,23.10
2019-06-20T09:19:46.471Z,23.10
2019-06-20T09:20:52.726Z,23.10
2019-06-20T09:21:55.942Z,23.20
2019-06-20T09:23:00.912Z,23.10
2019-06-20T09:24:05.950Z,23.10
2019-06-20T09:25:10.088Z,23.10
2019-06-20T09:26:14.227Z,23.10
2019-06-20T09:27:17.933Z,23.20
2019-06-20T09:28:22.069Z,23.30
2019-06-20T09:29:33.131Z,23.50
2019-06-20T09:30:52.223Z,23.60
2019-06-20T09:31:56.064Z,23.70
2019-06-20T09:33:00.219Z,23.70
2019-06-20T09:34:05.404Z,23.80
2019-06-20T09:35:11.315Z,24.00
2019-06-20T09:36:14.887Z,24.10
2019-06-20T09:37:19.044Z,24.20
2019-06-20T09:38:23.988Z,24.30
2019-06-20T09:39:28.179Z,24.50
2019-06-20T09:40:31.900Z,24.60
2019-06-20T09:41:36.051Z,24.70
2019-06-20T09:42:39.696Z,24.90
2019-06-20T09:43:43.843Z,25.00
2019-06-20T09:44:47.468Z,25.10
2019-06-20T09:45:53.117Z,25.10
2019-06-20T09:46:58.107Z,25.10
2019-06-20T09:48:02.760Z,25.00
2019-06-20T09:49:06.470Z,24.70
2019-06-20T09:50:12.724Z,24.60
2019-06-20T09:51:16.287Z,24.50
2019-06-20T09:52:20.488Z,24.30
2019-06-20T09:53:24.054Z,24.10
2019-06-20T09:54:28.206Z,24.00
2019-06-20T09:55:31.841Z,24.00
2019-06-20T09:56:36.032Z,24.00
2019-06-20T09:57:39.672Z,23.90
2019-06-20T09:58:43.818Z,23.80
2019-06-20T09:59:59.644Z,23.80
2019-06-20T10:00:53.220Z,23.80
2019-06-20T10:01:58.785Z,23.90
2019-06-20T10:03:02.672Z,24.00
2019-06-20T10:04:06.388Z,24.10
2019-06-20T10:05:11.484Z,24.10
2019-06-20T10:06:15.118Z,24.30
2019-06-20T10:07:19.240Z,24.30
2019-06-20T10:08:22.824Z,24.40
2019-06-20T10:09:26.955Z,24.60
2019-06-20T10:10:32.541Z,24.90
2019-06-20T10:11:36.688Z,25.10
2019-06-20T10:12:40.432Z,25.20
2019-06-20T10:13:45.011Z,25.40
2019-06-20T10:14:49.792Z,25.50
2019-06-20T10:15:53.988Z,25.50
2019-06-20T10:16:57.542Z,25.40
2019-06-20T10:18:01.802Z,25.30
2019-06-20T10:19:05.441Z,25.40
2019-06-20T10:20:09.790Z,25.30
2019-06-20T10:21:13.367Z,25.10
2019-06-20T10:22:17.583Z,25.10
2019-06-20T10:23:21.131Z,25.00
2019-06-20T10:24:25.283Z,25.00
2019-06-20T10:25:28.923Z,25.20
2019-06-20T10:26:33.125Z,25.30
2019-06-20T10:27:36.675Z,25.30
2019-06-20T10:28:40.875Z,25.10
2019-06-20T10:29:45.831Z,25.10
2019-06-20T10:30:51.094Z,25.00
2019-06-20T10:31:54.693Z,25.00
2019-06-20T10:32:58.881Z,25.10
2019-06-20T10:34:02.454Z,25.00
2019-06-20T10:35:07.676Z,24.90
2019-06-20T10:36:11.239Z,24.70
2019-06-20T10:37:15.388Z,24.70
2019-06-20T10:38:18.995Z,24.70
2019-06-20T10:39:23.140Z,24.70
2019-06-20T10:40:26.984Z,24.70
2019-06-20T10:41:31.123Z,24.70
2019-06-20T10:42:34.731Z,24.80
2019-06-20T10:43:38.873Z,24.90
2019-06-20T10:44:42.990Z,25.10
2019-06-20T10:45:49.445Z,25.20
2019-06-20T10:46:52.992Z,25.30
2019-06-20T10:47:57.244Z,25.60
2019-06-20T10:49:00.810Z,25.80
2019-06-20T10:50:08.211Z,25.90
2019-06-20T10:51:29.984Z,26.10
2019-06-20T10:52:33.548Z,26.10
2019-06-20T10:53:37.766Z,26.00
2019-06-20T10:54:42.218Z,26.00
2019-06-20T10:55:47.103Z,25.90
2019-06-20T10:56:51.028Z,25.60
2019-06-20T10:57:55.395Z,25.40
2019-06-20T10:58:59.000Z,25.40
2019-06-20T11:00:03.229Z,25.50
2019-06-20T11:01:06.833Z,25.40
2019-06-20T11:02:10.979Z,25.40
2019-06-20T11:03:14.557Z,25.60
2019-06-20T11:04:18.743Z,25.80
2019-06-20T11:05:22.857Z,26.00
2019-06-20T11:06:27.013Z,26.20
2019-06-20T11:07:30.575Z,26.40
2019-06-20T11:08:34.723Z,26.50
2019-06-20T11:09:39.623Z,26.70
2019-06-20T11:10:45.101Z,26.90
2019-06-20T11:11:49.090Z,27.10
2019-06-20T11:12:55.953Z,27.00
2019-06-20T11:13:58.540Z,27.00
2019-06-20T11:15:02.765Z,26.90
2019-06-20T11:16:06.523Z,26.80
2019-06-20T11:17:10.715Z,26.70
2019-06-20T11:18:14.279Z,26.50
2019-06-20T11:19:18.456Z,26.30
2019-06-20T11:20:22.232Z,26.10
2019-06-20T11:21:26.453Z,26.00
2019-06-20T11:22:30.008Z,26.10
2019-06-20T11:23:34.156Z,26.10
2019-06-20T11:24:39.158Z,26.10
2019-06-20T11:25:43.720Z,26.10
2019-06-20T11:26:47.947Z,26.10
2019-06-20T11:27:52.160Z,25.90
2019-06-20T11:28:55.891Z,25.80
2019-06-20T11:29:59.964Z,25.60
2019-06-20T11:31:03.903Z,25.50
2019-06-20T11:32:08.084Z,25.60
2019-06-20T11:33:11.733Z,25.60
2019-06-20T11:34:15.842Z,25.70
2019-06-20T11:35:19.416Z,25.70
2019-06-20T11:36:23.572Z,25.60
2019-06-20T11:37:27.137Z,25.60
2019-06-20T11:38:31.322Z,25.70
2019-06-20T11:39:36.135Z,25.60
2019-06-20T11:40:41.644Z,25.60
2019-06-20T11:41:45.260Z,25.70
2019-06-20T11:42:49.410Z,25.50
2019-06-20T11:43:53.009Z,25.50
2019-06-20T11:44:57.184Z,25.50
2019-06-20T11:46:00.739Z,25.80
2019-06-20T11:47:04.951Z,26.00
2019-06-20T11:48:08.658Z,26.00
2019-06-20T11:49:12.844Z,26.00
2019-06-20T11:50:17.349Z,26.00
2019-06-20T11:51:21.532Z,26.00
2019-06-20T11:52:25.095Z,25.90
2019-06-20T11:53:29.253Z,25.90
2019-06-20T11:54:33.315Z,25.90
2019-06-20T11:55:38.477Z,25.90
2019-06-20T11:56:42.063Z,26.10
2019-06-20T11:57:46.274Z,26.10
2019-06-20T11:58:49.876Z,26.30
2019-06-20T11:59:54.028Z,26.50
2019-06-20T12:01:03.454Z,26.80
2019-06-20T12:02:03.489Z,27.10
2019-06-20T12:03:07.051Z,27.40
2019-06-20T12:04:11.212Z,27.50
2019-06-20T12:05:15.122Z,27.60
2019-06-20T12:06:19.331Z,27.60
2019-06-20T12:07:22.919Z,27.80
2019-06-20T12:08:27.092Z,28.00
2019-06-20T12:09:30.644Z,28.10
2019-06-20T12:10:34.786Z,28.00
2019-06-20T12:11:39.610Z,28.00
2019-06-20T12:12:44.745Z,27.90
2019-06-20T12:13:48.603Z,27.70
2019-06-20T12:14:53.008Z,27.70
2019-06-20T12:15:56.613Z,27.90
2019-06-20T12:17:00.763Z,28.00
2019-06-20T12:18:04.368Z,28.30
2019-06-20T12:19:08.523Z,28.60
2019-06-20T12:20:13.128Z,28.70
2019-06-20T12:21:17.541Z,28.90
2019-06-20T12:22:21.174Z,28.90
2019-06-20T12:23:25.350Z,28.90
2019-06-20T12:24:28.947Z,28.80
2019-06-20T12:25:33.174Z,28.70
2019-06-20T12:26:38.916Z,28.70
2019-06-20T12:27:43.131Z,28.50
2019-06-20T12:28:46.963Z,28.50
2019-06-20T12:29:51.109Z,28.40
2019-06-20T12:30:54.801Z,28.20
2019-06-20T12:31:59.312Z,28.20
2019-06-20T12:33:03.151Z,28.30
2019-06-20T12:34:07.293Z,28.10
2019-06-20T12:35:11.132Z,28.00
2019-06-20T12:36:15.347Z,27.90
2019-06-20T12:37:18.919Z,27.90
2019-06-20T12:38:23.138Z,27.80
2019-06-20T12:39:26.693Z,27.60
2019-06-20T12:40:30.962Z,27.50
2019-06-20T12:41:34.542Z,27.50
2019-06-20T12:42:39.842Z,27.50
2019-06-20T12:43:44.442Z,27.50
2019-06-20T12:44:48.647Z,27.50
2019-06-20T12:45:52.255Z,27.60
2019-06-20T12:46:56.443Z,27.70
2019-06-20T12:48:00.008Z,27.70
2019-06-20T12:49:04.170Z,27.60
2019-06-20T12:50:08.063Z,27.70
2019-06-20T12:51:12.255Z,27.60
2019-06-20T12:52:15.950Z,27.70
2019-06-20T12:53:20.105Z,27.70
2019-06-20T12:54:23.671Z,27.80
2019-06-20T12:55:27.823Z,28.00
2019-06-20T12:56:31.445Z,28.20
2019-06-20T12:57:35.582Z,28.20
2019-06-20T12:58:40.583Z,28.40
2019-06-20T12:59:46.229Z,28.50
2019-06-20T13:00:50.432Z,28.60
2019-06-20T13:01:54.639Z,28.70
2019-06-20T13:02:58.222Z,28.90
2019-06-20T13:04:02.367Z,28.90
2019-06-20T13:05:07.288Z,28.80
2019-06-20T13:06:11.485Z,28.70
2019-06-20T13:07:15.140Z,28.70
2019-06-20T13:08:19.286Z,28.80
2019-06-20T13:09:22.846Z,28.90
2019-06-20T13:10:27.063Z,29.00
2019-06-20T13:11:30.679Z,29.20
2019-06-20T13:12:34.840Z,29.40
2019-06-20T13:13:39.390Z,29.60
2019-06-20T13:14:45.664Z,29.50
2019-06-20T13:15:49.339Z,29.60
2019-06-20T13:16:53.488Z,29.80
2019-06-20T13:17:57.062Z,29.80
2019-06-20T13:19:01.252Z,29.80
2019-06-20T13:20:06.541Z,29.90
2019-06-20T13:21:10.715Z,29.80
2019-06-20T13:22:14.275Z,29.70
2019-06-20T13:23:18.422Z,29.50
2019-06-20T13:24:22.026Z,29.50
2019-06-20T13:25:26.170Z,29.20
2019-06-20T13:26:29.736Z,29.00
2019-06-20T13:27:33.885Z,28.50
2019-06-20T13:28:54.086Z,28.30
2019-06-20T13:29:43.280Z,28.30
2019-06-20T13:30:50.820Z,28.20
2019-06-20T13:32:03.463Z,28.20
2019-06-20T13:32:58.638Z,28.40
2019-06-20T13:34:02.792Z,28.60
2019-06-20T13:35:07.974Z,28.60
2019-06-20T13:36:12.268Z,28.70
2019-06-20T13:37:15.846Z,28.90
2019-06-20T13:38:19.996Z,29.00
2019-06-20T13:39:23.560Z,29.10
2019-06-20T13:40:27.706Z,29.00
2019-06-20T13:41:31.272Z,29.00
2019-06-20T13:42:35.470Z,29.10
2019-06-20T13:43:39.044Z,29.10
2019-06-20T13:44:44.116Z,29.00
2019-06-20T13:45:47.724Z,29.10
2019-06-20T13:46:51.882Z,29.10
2019-06-20T13:47:55.543Z,29.30